sensor_id;sensor_type;location;lat;lon;timestamp;pressure;altitude;pressure_sealevel;temperature
14851;BMP180;7517;48.400;11.770;2023-11-18T00:00:54;97051.00;;;9.70
14851;BMP180;7517;48.400;11.770;2023-11-18T00:03:21;97056.00;;;9.70
14851;BMP180;7517;48.400;11.770;2023-11-18T00:05:49;97052.00;;;9.70
14851;BMP180;7517;48.400;11.770;2023-11-18T00:08:16;97057.00;;;9.70
14851;BMP180;7517;48.400;11.770;2023-11-18T00:10:43;97059.00;;;9.70
14851;BMP180;7517;48.400;11.770;2023-11-18T00:13:10;97060.00;;;9.80
14851;BMP180;7517;48.400;11.770;2023-11-18T00:15:37;97067.00;;;9.80
14851;BMP180;7517;48.400;11.770;2023-11-18T00:18:06;97049.00;;;9.80
14851;BMP180;7517;48.400;11.770;2023-11-18T00:20:33;97065.00;;;9.70
14851;BMP180;7517;48.400;11.770;2023-11-18T00:23:01;97061.00;;;9.80
14851;BMP180;7517;48.400;11.770;2023-11-18T00:25:30;97066.00;;;9.80
14851;BMP180;7517;48.400;11.770;2023-11-18T00:28:02;97067.00;;;9.80
14851;BMP180;7517;48.400;11.770;2023-11-18T00:30:29;97061.00;;;9.80
14851;BMP180;7517;48.400;11.770;2023-11-18T00:32:57;97076.00;;;9.80
14851;BMP180;7517;48.400;11.770;2023-11-18T00:35:26;97062.00;;;9.80
14851;BMP180;7517;48.400;11.770;2023-11-18T00:37:53;97061.00;;;9.80
14851;BMP180;7517;48.400;11.770;2023-11-18T00:40:20;97062.00;;;9.80
14851;BMP180;7517;48.400;11.770;2023-11-18T00:42:48;97067.00;;;9.80
14851;BMP180;7517;48.400;11.770;2023-11-18T00:45:15;97065.00;;;9.80
14851;BMP180;7517;48.400;11.770;2023-11-18T00:47:44;97063.00;;;9.80
14851;BMP180;7517;48.400;11.770;2023-11-18T00:50:11;97067.00;;;9.80
14851;BMP180;7517;48.400;11.770;2023-11-18T00:52:41;97068.00;;;9.70
14851;BMP180;7517;48.400;11.770;2023-11-18T00:55:09;97074.00;;;9.70
14851;BMP180;7517;48.400;11.770;2023-11-18T00:57:37;97069.00;;;9.70
14851;BMP180;7517;48.400;11.770;2023-11-18T01:00:08;97060.00;;;9.70
14851;BMP180;7517;48.400;11.770;2023-11-18T01:02:40;97061.00;;;9.70
14851;BMP180;7517;48.400;11.770;2023-11-18T01:05:07;97061.00;;;9.70
14851;BMP180;7517;48.400;11.770;2023-11-18T01:07:37;97058.00;;;9.70
14851;BMP180;7517;48.400;11.770;2023-11-18T01:10:06;97067.00;;;9.70
14851;BMP180;7517;48.400;11.770;2023-11-18T01:12:36;97063.00;;;9.70
14851;BMP180;7517;48.400;11.770;2023-11-18T01:15:04;97062.00;;;9.70
14851;BMP180;7517;48.400;11.770;2023-11-18T01:17:32;97073.00;;;9.70
14851;BMP180;7517;48.400;11.770;2023-11-18T01:20:00;97070.00;;;9.70
14851;BMP180;7517;48.400;11.770;2023-11-18T01:22:35;97071.00;;;9.70
14851;BMP180;7517;48.400;11.770;2023-11-18T01:25:06;97079.00;;;9.70
14851;BMP180;7517;48.400;11.770;2023-11-18T01:27:34;97074.00;;;9.70
14851;BMP180;7517;48.400;11.770;2023-11-18T01:30:02;97077.00;;;9.70
14851;BMP180;7517;48.400;11.770;2023-11-18T01:32:30;97076.00;;;9.70
14851;BMP180;7517;48.400;11.770;2023-11-18T01:34:57;97077.00;;;9.70
14851;BMP180;7517;48.400;11.770;2023-11-18T01:37:25;97080.00;;;9.70
14851;BMP180;7517;48.400;11.770;2023-11-18T01:39:52;97087.00;;;9.70
14851;BMP180;7517;48.400;11.770;2023-11-18T01:42:21;97084.00;;;9.70
14851;BMP180;7517;48.400;11.770;2023-11-18T01:44:48;97082.00;;;9.70
14851;BMP180;7517;48.400;11.770;2023-11-18T01:47:16;97086.00;;;9.70
14851;BMP180;7517;48.400;11.770;2023-11-18T01:49:43;97085.00;;;9.70
14851;BMP180;7517;48.400;11.770;2023-11-18T01:52:11;97083.00;;;9.70
14851;BMP180;7517;48.400;11.770;2023-11-18T01:54:39;97089.00;;;9.70
14851;BMP180;7517;48.400;11.770;2023-11-18T01:57:10;97094.00;;;9.70
14851;BMP180;7517;48.400;11.770;2023-11-18T01:59:41;97087.00;;;9.70
14851;BMP180;7517;48.400;11.770;2023-11-18T02:02:09;97087.00;;;9.70
14851;BMP180;7517;48.400;11.770;2023-11-18T02:04:37;97102.00;;;9.70
14851;BMP180;7517;48.400;11.770;2023-11-18T02:07:05;97105.00;;;9.70
14851;BMP180;7517;48.400;11.770;2023-11-18T02:09:36;97098.00;;;9.60
14851;BMP180;7517;48.400;11.770;2023-11-18T02:12:17;97092.00;;;9.60
14851;BMP180;7517;48.400;11.770;2023-11-18T02:14:50;97109.00;;;9.60
14851;BMP180;7517;48.400;11.770;2023-11-18T02:17:22;97111.00;;;9.60
14851;BMP180;7517;48.400;11.770;2023-11-18T02:19:51;97097.00;;;9.60
14851;BMP180;7517;48.400;11.770;2023-11-18T02:22:20;97103.00;;;9.50
14851;BMP180;7517;48.400;11.770;2023-11-18T02:24:48;97108.00;;;9.60
14851;BMP180;7517;48.400;11.770;2023-11-18T02:27:17;97114.00;;;9.50
14851;BMP180;7517;48.400;11.770;2023-11-18T02:29:48;97097.00;;;9.50
14851;BMP180;7517;48.400;11.770;2023-11-18T02:32:24;97099.00;;;9.50
14851;BMP180;7517;48.400;11.770;2023-11-18T02:35:02;97099.00;;;9.50
14851;BMP180;7517;48.400;11.770;2023-11-18T02:37:37;97103.00;;;9.50
14851;BMP180;7517;48.400;11.770;2023-11-18T02:40:12;97102.00;;;9.50
14851;BMP180;7517;48.400;11.770;2023-11-18T02:42:48;97109.00;;;9.50
14851;BMP180;7517;48.400;11.770;2023-11-18T02:45:21;97111.00;;;9.40
14851;BMP180;7517;48.400;11.770;2023-11-18T02:47:53;97102.00;;;9.50
14851;BMP180;7517;48.400;11.770;2023-11-18T02:50:23;97103.00;;;9.40
14851;BMP180;7517;48.400;11.770;2023-11-18T02:52:50;97110.00;;;9.50
14851;BMP180;7517;48.400;11.770;2023-11-18T02:55:18;97113.00;;;9.50
14851;BMP180;7517;48.400;11.770;2023-11-18T02:57:48;97111.00;;;9.50
14851;BMP180;7517;48.400;11.770;2023-11-18T03:00:19;97114.00;;;9.50
14851;BMP180;7517;48.400;11.770;2023-11-18T03:02:48;97111.00;;;9.50
14851;BMP180;7517;48.400;11.770;2023-11-18T03:05:16;97107.00;;;9.50
14851;BMP180;7517;48.400;11.770;2023-11-18T03:07:45;97109.00;;;9.50
14851;BMP180;7517;48.400;11.770;2023-11-18T03:10:24;97110.00;;;9.50
14851;BMP180;7517;48.400;11.770;2023-11-18T03:12:54;97109.00;;;9.50
14851;BMP180;7517;48.400;11.770;2023-11-18T03:15:22;97122.00;;;9.50
14851;BMP180;7517;48.400;11.770;2023-11-18T03:17:50;97125.00;;;9.40
14851;BMP180;7517;48.400;11.770;2023-11-18T03:20:18;97123.00;;;9.40
14851;BMP180;7517;48.400;11.770;2023-11-18T03:22:47;97124.00;;;9.40
14851;BMP180;7517;48.400;11.770;2023-11-18T03:25:16;97130.00;;;9.40
14851;BMP180;7517;48.400;11.770;2023-11-18T03:27:45;97135.00;;;9.40
14851;BMP180;7517;48.400;11.770;2023-11-18T03:30:13;97136.00;;;9.40
14851;BMP180;7517;48.400;11.770;2023-11-18T03:32:42;97132.00;;;9.40
14851;BMP180;7517;48.400;11.770;2023-11-18T03:35:10;97132.00;;;9.40
14851;BMP180;7517;48.400;11.770;2023-11-18T03:37:39;97141.00;;;9.30
14851;BMP180;7517;48.400;11.770;2023-11-18T03:40:10;97143.00;;;9.30
14851;BMP180;7517;48.400;11.770;2023-11-18T03:42:38;97146.00;;;9.30
14851;BMP180;7517;48.400;11.770;2023-11-18T03:45:08;97152.00;;;9.30
14851;BMP180;7517;48.400;11.770;2023-11-18T03:47:37;97154.00;;;9.30
14851;BMP180;7517;48.400;11.770;2023-11-18T03:50:06;97162.00;;;9.30
14851;BMP180;7517;48.400;11.770;2023-11-18T03:52:35;97156.00;;;9.30
14851;BMP180;7517;48.400;11.770;2023-11-18T03:55:04;97160.00;;;9.30
14851;BMP180;7517;48.400;11.770;2023-11-18T03:57:31;97167.00;;;9.30
14851;BMP180;7517;48.400;11.770;2023-11-18T03:59:58;97164.00;;;9.20
14851;BMP180;7517;48.400;11.770;2023-11-18T04:02:25;97156.00;;;9.20
14851;BMP180;7517;48.400;11.770;2023-11-18T04:04:54;97164.00;;;9.20
14851;BMP180;7517;48.400;11.770;2023-11-18T04:07:22;97154.00;;;9.20
14851;BMP180;7517;48.400;11.770;2023-11-18T04:09:49;97157.00;;;9.20
14851;BMP180;7517;48.400;11.770;2023-11-18T04:12:19;97162.00;;;9.20
14851;BMP180;7517;48.400;11.770;2023-11-18T04:14:47;97160.00;;;9.20
14851;BMP180;7517;48.400;11.770;2023-11-18T04:17:14;97157.00;;;9.20
14851;BMP180;7517;48.400;11.770;2023-11-18T04:19:41;97159.00;;;9.20
14851;BMP180;7517;48.400;11.770;2023-11-18T04:22:09;97156.00;;;9.20
14851;BMP180;7517;48.400;11.770;2023-11-18T04:24:37;97151.00;;;9.20
14851;BMP180;7517;48.400;11.770;2023-11-18T04:27:04;97153.00;;;9.20
14851;BMP180;7517;48.400;11.770;2023-11-18T04:29:31;97151.00;;;9.20
14851;BMP180;7517;48.400;11.770;2023-11-18T04:31:58;97153.00;;;9.20
14851;BMP180;7517;48.400;11.770;2023-11-18T04:34:27;97157.00;;;9.20
14851;BMP180;7517;48.400;11.770;2023-11-18T04:36:54;97154.00;;;9.20
14851;BMP180;7517;48.400;11.770;2023-11-18T04:39:23;97155.00;;;9.20
14851;BMP180;7517;48.400;11.770;2023-11-18T04:41:51;97152.00;;;9.20
14851;BMP180;7517;48.400;11.770;2023-11-18T04:44:18;97159.00;;;9.20
14851;BMP180;7517;48.400;11.770;2023-11-18T04:46:45;97152.00;;;9.20
14851;BMP180;7517;48.400;11.770;2023-11-18T04:49:12;97157.00;;;9.20
14851;BMP180;7517;48.400;11.770;2023-11-18T04:51:40;97144.00;;;9.10
14851;BMP180;7517;48.400;11.770;2023-11-18T04:54:07;97153.00;;;9.20
14851;BMP180;7517;48.400;11.770;2023-11-18T04:56:37;97152.00;;;9.20
14851;BMP180;7517;48.400;11.770;2023-11-18T04:59:05;97159.00;;;9.20
14851;BMP180;7517;48.400;11.770;2023-11-18T05:01:32;97155.00;;;9.20
14851;BMP180;7517;48.400;11.770;2023-11-18T05:03:59;97158.00;;;9.20
14851;BMP180;7517;48.400;11.770;2023-11-18T05:06:27;97141.00;;;9.20
14851;BMP180;7517;48.400;11.770;2023-11-18T05:08:54;97147.00;;;9.20
14851;BMP180;7517;48.400;11.770;2023-11-18T05:11:21;97161.00;;;9.20
14851;BMP180;7517;48.400;11.770;2023-11-18T05:13:50;97151.00;;;9.20
14851;BMP180;7517;48.400;11.770;2023-11-18T05:16:17;97158.00;;;9.20
14851;BMP180;7517;48.400;11.770;2023-11-18T05:18:44;97159.00;;;9.20
14851;BMP180;7517;48.400;11.770;2023-11-18T05:21:11;97163.00;;;9.20
14851;BMP180;7517;48.400;11.770;2023-11-18T05:23:39;97159.00;;;9.20
14851;BMP180;7517;48.400;11.770;2023-11-18T05:26:06;97149.00;;;9.10
14851;BMP180;7517;48.400;11.770;2023-11-18T05:28:33;97152.00;;;9.20
14851;BMP180;7517;48.400;11.770;2023-11-18T05:31:02;97147.00;;;9.20
14851;BMP180;7517;48.400;11.770;2023-11-18T05:33:30;97142.00;;;9.20
14851;BMP180;7517;48.400;11.770;2023-11-18T05:36:00;97141.00;;;9.20
14851;BMP180;7517;48.400;11.770;2023-11-18T05:38:30;97134.00;;;9.20
14851;BMP180;7517;48.400;11.770;2023-11-18T05:41:01;97147.00;;;9.20
14851;BMP180;7517;48.400;11.770;2023-11-18T05:43:33;97148.00;;;9.20
14851;BMP180;7517;48.400;11.770;2023-11-18T05:46:07;97145.00;;;9.20
14851;BMP180;7517;48.400;11.770;2023-11-18T05:48:46;97157.00;;;9.20
14851;BMP180;7517;48.400;11.770;2023-11-18T05:51:14;97146.00;;;9.20
14851;BMP180;7517;48.400;11.770;2023-11-18T05:53:42;97159.00;;;9.30
14851;BMP180;7517;48.400;11.770;2023-11-18T05:56:11;97172.00;;;9.30
14851;BMP180;7517;48.400;11.770;2023-11-18T05:58:38;97166.00;;;9.30
14851;BMP180;7517;48.400;11.770;2023-11-18T06:01:07;97164.00;;;9.30
14851;BMP180;7517;48.400;11.770;2023-11-18T06:03:35;97178.00;;;9.30
14851;BMP180;7517;48.400;11.770;2023-11-18T06:06:06;97182.00;;;9.30
14851;BMP180;7517;48.400;11.770;2023-11-18T06:08:34;97178.00;;;9.30
14851;BMP180;7517;48.400;11.770;2023-11-18T06:11:03;97186.00;;;9.40
14851;BMP180;7517;48.400;11.770;2023-11-18T06:13:40;97180.00;;;9.40
14851;BMP180;7517;48.400;11.770;2023-11-18T06:16:15;97187.00;;;9.40
14851;BMP180;7517;48.400;11.770;2023-11-18T06:18:43;97195.00;;;9.40
14851;BMP180;7517;48.400;11.770;2023-11-18T06:21:14;97193.00;;;9.40
14851;BMP180;7517;48.400;11.770;2023-11-18T06:23:42;97196.00;;;9.40
14851;BMP180;7517;48.400;11.770;2023-11-18T06:26:11;97190.00;;;9.40
14851;BMP180;7517;48.400;11.770;2023-11-18T06:28:40;97198.00;;;9.40
14851;BMP180;7517;48.400;11.770;2023-11-18T06:31:08;97198.00;;;9.40
14851;BMP180;7517;48.400;11.770;2023-11-18T06:33:41;97194.00;;;9.40
14851;BMP180;7517;48.400;11.770;2023-11-18T06:36:09;97195.00;;;9.40
14851;BMP180;7517;48.400;11.770;2023-11-18T06:38:38;97206.00;;;9.40
14851;BMP180;7517;48.400;11.770;2023-11-18T06:41:07;97208.00;;;9.40
14851;BMP180;7517;48.400;11.770;2023-11-18T06:43:36;97201.00;;;9.50
14851;BMP180;7517;48.400;11.770;2023-11-18T06:46:18;97207.00;;;9.40
14851;BMP180;7517;48.400;11.770;2023-11-18T06:48:49;97199.00;;;9.40
14851;BMP180;7517;48.400;11.770;2023-11-18T06:51:22;97190.00;;;9.40
14851;BMP180;7517;48.400;11.770;2023-11-18T06:53:50;97195.00;;;9.40
14851;BMP180;7517;48.400;11.770;2023-11-18T06:56:17;97192.00;;;9.40
14851;BMP180;7517;48.400;11.770;2023-11-18T06:58:45;97192.00;;;9.40
14851;BMP180;7517;48.400;11.770;2023-11-18T07:01:13;97189.00;;;9.40
14851;BMP180;7517;48.400;11.770;2023-11-18T07:03:41;97204.00;;;9.40
14851;BMP180;7517;48.400;11.770;2023-11-18T07:06:10;97206.00;;;9.40
14851;BMP180;7517;48.400;11.770;2023-11-18T07:08:40;97209.00;;;9.40
14851;BMP180;7517;48.400;11.770;2023-11-18T07:11:07;97197.00;;;9.40
14851;BMP180;7517;48.400;11.770;2023-11-18T07:13:34;97204.00;;;9.40
14851;BMP180;7517;48.400;11.770;2023-11-18T07:16:04;97206.00;;;9.40
14851;BMP180;7517;48.400;11.770;2023-11-18T07:18:31;97201.00;;;9.50
14851;BMP180;7517;48.400;11.770;2023-11-18T07:20:59;97201.00;;;9.40
14851;BMP180;7517;48.400;11.770;2023-11-18T07:23:28;97203.00;;;9.50
14851;BMP180;7517;48.400;11.770;2023-11-18T07:25:55;97203.00;;;9.50
14851;BMP180;7517;48.400;11.770;2023-11-18T07:28:28;97200.00;;;9.50
14851;BMP180;7517;48.400;11.770;2023-11-18T07:30:56;97202.00;;;9.50
14851;BMP180;7517;48.400;11.770;2023-11-18T07:33:43;97203.00;;;9.50
14851;BMP180;7517;48.400;11.770;2023-11-18T07:36:15;97207.00;;;9.50
14851;BMP180;7517;48.400;11.770;2023-11-18T07:38:51;97230.00;;;9.50
14851;BMP180;7517;48.400;11.770;2023-11-18T07:41:22;97222.00;;;9.60
14851;BMP180;7517;48.400;11.770;2023-11-18T07:43:58;97212.00;;;9.60
14851;BMP180;7517;48.400;11.770;2023-11-18T07:47:03;97225.00;;;9.70
14851;BMP180;7517;48.400;11.770;2023-11-18T07:49:40;97233.00;;;9.70
14851;BMP180;7517;48.400;11.770;2023-11-18T07:52:08;97221.00;;;9.70
14851;BMP180;7517;48.400;11.770;2023-11-18T07:58:49;97208.00;;;9.80
14851;BMP180;7517;48.400;11.770;2023-11-18T08:01:52;97238.00;;;9.80
14851;BMP180;7517;48.400;11.770;2023-11-18T08:04:43;97224.00;;;9.90
14851;BMP180;7517;48.400;11.770;2023-11-18T08:07:13;97226.00;;;9.90
14851;BMP180;7517;48.400;11.770;2023-11-18T08:10:01;97229.00;;;9.90
14851;BMP180;7517;48.400;11.770;2023-11-18T08:12:36;97223.00;;;9.90
14851;BMP180;7517;48.400;11.770;2023-11-18T08:15:06;97229.00;;;10.00
14851;BMP180;7517;48.400;11.770;2023-11-18T08:17:43;97223.00;;;10.00
14851;BMP180;7517;48.400;11.770;2023-11-18T08:20:17;97215.00;;;10.00
14851;BMP180;7517;48.400;11.770;2023-11-18T08:22:53;97217.00;;;10.00
14851;BMP180;7517;48.400;11.770;2023-11-18T08:25:33;97229.00;;;10.00
14851;BMP180;7517;48.400;11.770;2023-11-18T08:28:11;97224.00;;;10.00
14851;BMP180;7517;48.400;11.770;2023-11-18T08:30:40;97238.00;;;10.00
14851;BMP180;7517;48.400;11.770;2023-11-18T08:33:07;97247.00;;;10.10
14851;BMP180;7517;48.400;11.770;2023-11-18T08:35:35;97252.00;;;10.10
14851;BMP180;7517;48.400;11.770;2023-11-18T08:38:02;97248.00;;;10.10
14851;BMP180;7517;48.400;11.770;2023-11-18T08:40:34;97253.00;;;10.20
14851;BMP180;7517;48.400;11.770;2023-11-18T08:43:04;97241.00;;;10.20
14851;BMP180;7517;48.400;11.770;2023-11-18T08:45:33;97264.00;;;10.20
14851;BMP180;7517;48.400;11.770;2023-11-18T08:48:04;97257.00;;;10.20
14851;BMP180;7517;48.400;11.770;2023-11-18T08:50:34;97252.00;;;10.30
14851;BMP180;7517;48.400;11.770;2023-11-18T08:53:02;97245.00;;;10.30
14851;BMP180;7517;48.400;11.770;2023-11-18T08:55:33;97246.00;;;10.30
14851;BMP180;7517;48.400;11.770;2023-11-18T08:58:07;97238.00;;;10.30
14851;BMP180;7517;48.400;11.770;2023-11-18T09:00:50;97240.00;;;10.40
14851;BMP180;7517;48.400;11.770;2023-11-18T09:03:21;97236.00;;;10.40
14851;BMP180;7517;48.400;11.770;2023-11-18T09:05:51;97252.00;;;10.40
14851;BMP180;7517;48.400;11.770;2023-11-18T09:08:26;97233.00;;;10.50
14851;BMP180;7517;48.400;11.770;2023-11-18T09:10:57;97236.00;;;10.50
14851;BMP180;7517;48.400;11.770;2023-11-18T09:13:25;97234.00;;;10.60
14851;BMP180;7517;48.400;11.770;2023-11-18T09:15:55;97237.00;;;10.60
14851;BMP180;7517;48.400;11.770;2023-11-18T09:18:23;97232.00;;;10.60
14851;BMP180;7517;48.400;11.770;2023-11-18T09:20:51;97248.00;;;10.60
14851;BMP180;7517;48.400;11.770;2023-11-18T09:23:21;97253.00;;;10.70
14851;BMP180;7517;48.400;11.770;2023-11-18T09:25:51;97259.00;;;10.70
14851;BMP180;7517;48.400;11.770;2023-11-18T09:28:21;97258.00;;;10.70
14851;BMP180;7517;48.400;11.770;2023-11-18T09:30:53;97232.00;;;10.70
14851;BMP180;7517;48.400;11.770;2023-11-18T09:33:25;97260.00;;;10.80
14851;BMP180;7517;48.400;11.770;2023-11-18T09:35:55;97245.00;;;10.80
14851;BMP180;7517;48.400;11.770;2023-11-18T09:38:29;97259.00;;;10.80
14851;BMP180;7517;48.400;11.770;2023-11-18T09:40:57;97264.00;;;10.80
14851;BMP180;7517;48.400;11.770;2023-11-18T09:43:29;97264.00;;;10.80
14851;BMP180;7517;48.400;11.770;2023-11-18T09:46:06;97261.00;;;10.90
14851;BMP180;7517;48.400;11.770;2023-11-18T09:48:43;97268.00;;;10.90
14851;BMP180;7517;48.400;11.770;2023-11-18T09:51:19;97255.00;;;11.00
14851;BMP180;7517;48.400;11.770;2023-11-18T09:53:51;97256.00;;;11.00
14851;BMP180;7517;48.400;11.770;2023-11-18T09:56:36;97255.00;;;11.00
14851;BMP180;7517;48.400;11.770;2023-11-18T09:59:16;97254.00;;;11.10
14851;BMP180;7517;48.400;11.770;2023-11-18T10:01:51;97240.00;;;11.20
14851;BMP180;7517;48.400;11.770;2023-11-18T10:04:24;97239.00;;;11.20
14851;BMP180;7517;48.400;11.770;2023-11-18T10:06:53;97249.00;;;11.30
14851;BMP180;7517;48.400;11.770;2023-11-18T10:09:26;97252.00;;;11.30
14851;BMP180;7517;48.400;11.770;2023-11-18T10:12:04;97239.00;;;11.30
14851;BMP180;7517;48.400;11.770;2023-11-18T10:14:36;97237.00;;;11.30
14851;BMP180;7517;48.400;11.770;2023-11-18T10:17:09;97244.00;;;11.40
14851;BMP180;7517;48.400;11.770;2023-11-18T10:19:56;97240.00;;;11.40
14851;BMP180;7517;48.400;11.770;2023-11-18T10:22:27;97236.00;;;11.40
14851;BMP180;7517;48.400;11.770;2023-11-18T10:24:55;97227.00;;;11.40
14851;BMP180;7517;48.400;11.770;2023-11-18T10:27:25;97225.00;;;11.50
14851;BMP180;7517;48.400;11.770;2023-11-18T10:30:03;97211.00;;;11.50
14851;BMP180;7517;48.400;11.770;2023-11-18T10:32:30;97226.00;;;11.60
14851;BMP180;7517;48.400;11.770;2023-11-18T10:35:03;97233.00;;;11.60
14851;BMP180;7517;48.400;11.770;2023-11-18T10:37:35;97223.00;;;11.70
14851;BMP180;7517;48.400;11.770;2023-11-18T10:40:10;97226.00;;;11.70
14851;BMP180;7517;48.400;11.770;2023-11-18T10:42:39;97221.00;;;11.70
14851;BMP180;7517;48.400;11.770;2023-11-18T10:45:23;97221.00;;;11.70
14851;BMP180;7517;48.400;11.770;2023-11-18T10:47:54;97222.00;;;11.70
14851;BMP180;7517;48.400;11.770;2023-11-18T10:50:23;97223.00;;;11.70
14851;BMP180;7517;48.400;11.770;2023-11-18T10:52:59;97222.00;;;11.70
14851;BMP180;7517;48.400;11.770;2023-11-18T10:55:38;97218.00;;;11.70
14851;BMP180;7517;48.400;11.770;2023-11-18T10:58:08;97225.00;;;11.70
14851;BMP180;7517;48.400;11.770;2023-11-18T11:00:48;97218.00;;;11.70
14851;BMP180;7517;48.400;11.770;2023-11-18T11:03:18;97226.00;;;11.70
14851;BMP180;7517;48.400;11.770;2023-11-18T11:05:49;97219.00;;;11.70
14851;BMP180;7517;48.400;11.770;2023-11-18T11:08:28;97217.00;;;11.70
14851;BMP180;7517;48.400;11.770;2023-11-18T11:11:01;97207.00;;;11.70
14851;BMP180;7517;48.400;11.770;2023-11-18T11:13:34;97209.00;;;11.70
14851;BMP180;7517;48.400;11.770;2023-11-18T11:16:10;97211.00;;;11.70
14851;BMP180;7517;48.400;11.770;2023-11-18T11:18:47;97207.00;;;11.60
14851;BMP180;7517;48.400;11.770;2023-11-18T11:21:25;97225.00;;;11.70
14851;BMP180;7517;48.400;11.770;2023-11-18T11:24:04;97224.00;;;11.60
14851;BMP180;7517;48.400;11.770;2023-11-18T11:26:48;97214.00;;;11.60
14851;BMP180;7517;48.400;11.770;2023-11-18T11:29:32;97218.00;;;11.60
14851;BMP180;7517;48.400;11.770;2023-11-18T11:32:20;97228.00;;;11.60
14851;BMP180;7517;48.400;11.770;2023-11-18T11:35:01;97221.00;;;11.60
14851;BMP180;7517;48.400;11.770;2023-11-18T11:37:33;97232.00;;;11.60
14851;BMP180;7517;48.400;11.770;2023-11-18T11:40:03;97228.00;;;11.60
14851;BMP180;7517;48.400;11.770;2023-11-18T11:42:37;97235.00;;;11.60
14851;BMP180;7517;48.400;11.770;2023-11-18T11:45:08;97227.00;;;11.60
14851;BMP180;7517;48.400;11.770;2023-11-18T11:47:50;97222.00;;;11.60
14851;BMP180;7517;48.400;11.770;2023-11-18T11:50:25;97213.00;;;11.70
14851;BMP180;7517;48.400;11.770;2023-11-18T11:53:09;97209.00;;;11.70
14851;BMP180;7517;48.400;11.770;2023-11-18T11:55:49;97214.00;;;11.70
14851;BMP180;7517;48.400;11.770;2023-11-18T11:58:33;97210.00;;;11.80
14851;BMP180;7517;48.400;11.770;2023-11-18T12:01:36;97201.00;;;11.80
14851;BMP180;7517;48.400;11.770;2023-11-18T12:04:25;97200.00;;;11.80
14851;BMP180;7517;48.400;11.770;2023-11-18T12:07:10;97192.00;;;11.90
14851;BMP180;7517;48.400;11.770;2023-11-18T12:09:46;97195.00;;;11.90
14851;BMP180;7517;48.400;11.770;2023-11-18T12:12:31;97200.00;;;11.90
14851;BMP180;7517;48.400;11.770;2023-11-18T12:15:09;97198.00;;;11.90
14851;BMP180;7517;48.400;11.770;2023-11-18T12:18:20;97193.00;;;11.90
14851;BMP180;7517;48.400;11.770;2023-11-18T12:20:57;97183.00;;;11.90
14851;BMP180;7517;48.400;11.770;2023-11-18T12:23:28;97190.00;;;11.90
14851;BMP180;7517;48.400;11.770;2023-11-18T12:25:59;97183.00;;;11.90
14851;BMP180;7517;48.400;11.770;2023-11-18T12:28:46;97178.00;;;12.00
14851;BMP180;7517;48.400;11.770;2023-11-18T12:31:41;97166.00;;;11.90
14851;BMP180;7517;48.400;11.770;2023-11-18T12:34:55;97162.00;;;12.00
14851;BMP180;7517;48.400;11.770;2023-11-18T12:38:09;97164.00;;;12.00
14851;BMP180;7517;48.400;11.770;2023-11-18T12:40:55;97151.00;;;12.00
14851;BMP180;7517;48.400;11.770;2023-11-18T12:43:53;97145.00;;;12.00
14851;BMP180;7517;48.400;11.770;2023-11-18T12:46:59;97143.00;;;12.00
14851;BMP180;7517;48.400;11.770;2023-11-18T12:49:38;97133.00;;;12.00
14851;BMP180;7517;48.400;11.770;2023-11-18T12:52:22;97137.00;;;12.00
14851;BMP180;7517;48.400;11.770;2023-11-18T12:54:56;97141.00;;;12.00
14851;BMP180;7517;48.400;11.770;2023-11-18T12:57:30;97128.00;;;12.00
14851;BMP180;7517;48.400;11.770;2023-11-18T13:00:08;97130.00;;;12.00
14851;BMP180;7517;48.400;11.770;2023-11-18T13:02:58;97128.00;;;12.00
14851;BMP180;7517;48.400;11.770;2023-11-18T13:05:35;97134.00;;;12.00
14851;BMP180;7517;48.400;11.770;2023-11-18T13:08:18;97123.00;;;11.90
14851;BMP180;7517;48.400;11.770;2023-11-18T13:10:51;97132.00;;;11.90
14851;BMP180;7517;48.400;11.770;2023-11-18T13:13:25;97128.00;;;11.90
14851;BMP180;7517;48.400;11.770;2023-11-18T13:16:05;97121.00;;;11.90
14851;BMP180;7517;48.400;11.770;2023-11-18T13:18:47;97120.00;;;11.90
14851;BMP180;7517;48.400;11.770;2023-11-18T13:21:24;97106.00;;;11.90
14851;BMP180;7517;48.400;11.770;2023-11-18T13:23:56;97104.00;;;11.90
14851;BMP180;7517;48.400;11.770;2023-11-18T13:26:37;97110.00;;;11.90
14851;BMP180;7517;48.400;11.770;2023-11-18T13:29:16;97099.00;;;11.90
14851;BMP180;7517;48.400;11.770;2023-11-18T13:34:42;97096.00;;;11.90
14851;BMP180;7517;48.400;11.770;2023-11-18T13:37:25;97089.00;;;11.90
14851;BMP180;7517;48.400;11.770;2023-11-18T13:39:58;97093.00;;;11.90
14851;BMP180;7517;48.400;11.770;2023-11-18T13:42:30;97096.00;;;11.90
14851;BMP180;7517;48.400;11.770;2023-11-18T13:45:12;97087.00;;;11.90
14851;BMP180;7517;48.400;11.770;2023-11-18T13:47:59;97080.00;;;11.90
14851;BMP180;7517;48.400;11.770;2023-11-18T13:50:42;97091.00;;;11.80
14851;BMP180;7517;48.400;11.770;2023-11-18T13:53:09;97095.00;;;11.80
14851;BMP180;7517;48.400;11.770;2023-11-18T13:56:02;97091.00;;;11.80
14851;BMP180;7517;48.400;11.770;2023-11-18T13:58:37;97082.00;;;11.80
14851;BMP180;7517;48.400;11.770;2023-11-18T14:01:17;97087.00;;;11.70
14851;BMP180;7517;48.400;11.770;2023-11-18T14:03:56;97089.00;;;11.70
14851;BMP180;7517;48.400;11.770;2023-11-18T14:07:06;97082.00;;;11.70
14851;BMP180;7517;48.400;11.770;2023-11-18T14:09:53;97084.00;;;11.70
14851;BMP180;7517;48.400;11.770;2023-11-18T14:18:47;97091.00;;;11.80
14851;BMP180;7517;48.400;11.770;2023-11-18T14:21:24;97089.00;;;11.80
14851;BMP180;7517;48.400;11.770;2023-11-18T14:24:03;97097.00;;;11.80
14851;BMP180;7517;48.400;11.770;2023-11-18T14:26:40;97086.00;;;11.90
14851;BMP180;7517;48.400;11.770;2023-11-18T14:29:09;97084.00;;;11.90
14851;BMP180;7517;48.400;11.770;2023-11-18T14:31:44;97069.00;;;11.90
14851;BMP180;7517;48.400;11.770;2023-11-18T14:34:12;97066.00;;;11.90
14851;BMP180;7517;48.400;11.770;2023-11-18T14:36:48;97052.00;;;11.90
14851;BMP180;7517;48.400;11.770;2023-11-18T14:39:46;97053.00;;;11.90
14851;BMP180;7517;48.400;11.770;2023-11-18T14:42:39;97059.00;;;11.80
14851;BMP180;7517;48.400;11.770;2023-11-18T14:45:29;97063.00;;;11.80
14851;BMP180;7517;48.400;11.770;2023-11-18T14:48:13;97076.00;;;11.80
14851;BMP180;7517;48.400;11.770;2023-11-18T14:51:07;97081.00;;;11.80
14851;BMP180;7517;48.400;11.770;2023-11-18T14:53:50;97061.00;;;11.80
14851;BMP180;7517;48.400;11.770;2023-11-18T14:56:43;97074.00;;;11.70
14851;BMP180;7517;48.400;11.770;2023-11-18T14:59:22;97068.00;;;11.70
14851;BMP180;7517;48.400;11.770;2023-11-18T15:01:59;97063.00;;;11.70
14851;BMP180;7517;48.400;11.770;2023-11-18T15:04:33;97055.00;;;11.70